Time;durP1;ratioP1;P1;durP2;ratioP2;P2;SDS_P1;SDS_P2;PMS_P1;PMS_P2;Temp;Humidity;BMP_temperature;BMP_pressure;BME280_temperature;BME280_humidity;BME280_pressure;Samples;Min_cycle;Max_cycle;Signal;HPM_P1;HPM_P2
2022/10/27 00:00:40;;;;;;;0.60;0.60;;;8.60;99.90;;;;;;6236526;23;20401;-78
2022/10/27 00:03:10;;;;;;;1.73;1.10;;;8.60;99.90;;;;;;6236447;23;20393;-78
2022/10/27 00:05:42;;;;;;;1.15;1.05;;;8.60;99.90;;;;;;6238037;23;20397;-79
2022/10/27 00:08:12;;;;;;;1.33;0.85;;;8.70;99.90;;;;;;6246896;23;20435;-79
2022/10/27 00:10:41;;;;;;;0.70;0.70;;;8.80;99.90;;;;;;6236450;23;20439;-79
2022/10/27 00:13:08;;;;;;;1.40;0.95;;;8.80;99.90;;;;;;6244745;23;20393;-79
2022/10/27 00:15:34;;;;;;;0.65;0.65;;;8.80;99.90;;;;;;6248945;23;20390;-79
2022/10/27 00:18:10;;;;;;;1.93;0.67;;;8.90;99.90;;;;;;6236110;23;20381;-79
2022/10/27 00:20:37;;;;;;;0.60;0.60;;;9.00;99.90;;;;;;6248097;22;20417;-79
2022/10/27 00:23:04;;;;;;;0.60;0.60;;;9.00;99.90;;;;;;6234505;23;20951;-79
2022/10/27 00:25:31;;;;;;;1.53;0.50;;;9.00;99.90;;;;;;6238597;23;20421;-79
2022/10/27 00:27:58;;;;;;;0.70;0.70;;;8.90;99.90;;;;;;6236624;23;20467;-79
2022/10/27 00:30:24;;;;;;;0.57;0.57;;;8.90;99.90;;;;;;6227890;23;20908;-79
2022/10/27 00:32:53;;;;;;;0.50;0.50;;;8.90;99.90;;;;;;6248526;23;20394;-79
2022/10/27 00:35:23;;;;;;;0.50;0.50;;;8.90;99.90;;;;;;6237658;22;20390;-79
2022/10/27 00:37:50;;;;;;;0.57;0.57;;;8.80;99.90;;;;;;6246021;23;20443;-79
2022/10/27 00:40:19;;;;;;;0.60;0.50;;;8.80;99.90;;;;;;6237407;23;20386;-79
2022/10/27 00:42:45;;;;;;;1.00;0.80;;;8.70;99.90;;;;;;6237905;23;20424;-79
2022/10/27 00:45:12;;;;;;;2.30;0.60;;;8.70;99.90;;;;;;6248628;23;20393;-79
2022/10/27 00:47:39;;;;;;;0.60;0.60;;;8.70;99.90;;;;;;6245620;23;20389;-79
2022/10/27 00:50:20;;;;;;;0.68;0.57;;;8.70;99.90;;;;;;6245271;23;20535;-79
2022/10/27 00:52:53;;;;;;;0.80;0.80;;;8.80;99.90;;;;;;6235569;23;20927;-79
2022/10/27 00:55:32;;;;;;;0.77;0.77;;;8.80;99.90;;;;;;6237816;22;20390;-78
2022/10/27 00:58:03;;;;;;;0.60;0.60;;;8.70;99.90;;;;;;6236571;22;20432;-79
2022/10/27 01:00:30;;;;;;;0.47;0.47;;;8.70;99.90;;;;;;6248238;22;20390;-79
2022/10/27 01:03:06;;;;;;;0.70;0.70;;;8.70;99.90;;;;;;6236122;23;20497;-78
2022/10/27 01:05:35;;;;;;;0.40;0.40;;;8.60;99.90;;;;;;6246467;23;20394;-79
2022/10/27 01:08:03;;;;;;;0.57;0.57;;;8.60;99.90;;;;;;6235888;23;20382;-79
2022/10/27 01:10:30;;;;;;;0.68;0.68;;;8.50;99.90;;;;;;6237707;22;20394;-79
2022/10/27 01:12:58;;;;;;;0.63;0.63;;;8.60;99.90;;;;;;6236445;23;20420;-79
2022/10/27 01:15:46;;;;;;;0.30;0.30;;;8.60;99.90;;;;;;6235936;23;20401;-79
2022/10/27 01:18:43;;;;;;;1.17;0.77;;;8.60;99.90;;;;;;6236294;22;20858;-78
2022/10/27 01:21:35;;;;;;;1.40;0.80;;;8.70;99.90;;;;;;6245361;23;20389;-78
2022/10/27 01:24:30;;;;;;;0.90;0.68;;;8.70;99.90;;;;;;6233810;23;20398;-79
2022/10/27 01:27:01;;;;;;;0.50;0.50;;;8.70;99.90;;;;;;6238467;22;20730;-79
2022/10/27 01:30:10;;;;;;;0.83;0.83;;;8.80;99.90;;;;;;6236840;23;20394;-78
2022/10/27 01:32:48;;;;;;;1.00;0.57;;;8.90;99.90;;;;;;6237597;22;20398;-79
2022/10/27 01:35:53;;;;;;;2.40;1.00;;;8.90;99.90;;;;;;6245638;23;20431;-79
2022/10/27 01:38:28;;;;;;;0.70;0.70;;;8.90;99.90;;;;;;6237280;23;20394;-79
2022/10/27 01:41:04;;;;;;;0.70;0.70;;;8.90;99.90;;;;;;6236812;23;20398;-79
2022/10/27 01:43:32;;;;;;;0.73;0.73;;;8.80;99.90;;;;;;6234934;23;20402;-79
2022/10/27 01:46:02;;;;;;;0.52;0.52;;;8.80;99.90;;;;;;6237742;22;20394;-79
2022/10/27 01:48:35;;;;;;;1.73;0.90;;;8.80;99.90;;;;;;6236400;23;20386;-79
2022/10/27 01:51:02;;;;;;;0.65;0.65;;;8.80;99.90;;;;;;6245590;23;20385;-79
2022/10/27 01:53:35;;;;;;;1.47;1.00;;;8.80;99.90;;;;;;6236464;22;20448;-79
2022/10/27 01:56:04;;;;;;;0.50;0.50;;;8.80;99.90;;;;;;6246132;22;20459;-78
2022/10/27 01:58:39;;;;;;;0.70;0.63;;;8.90;99.90;;;;;;6233528;23;20394;-79
2022/10/27 02:01:34;;;;;;;0.70;0.70;;;8.80;99.90;;;;;;6245147;23;20762;-79
2022/10/27 02:04:21;;;;;;;0.75;0.75;;;8.60;99.90;;;;;;6234502;23;20758;-79
2022/10/27 02:06:55;;;;;;;0.60;0.60;;;8.40;99.90;;;;;;6238191;22;20773;-79
2022/10/27 02:09:25;;;;;;;1.00;0.80;;;8.50;99.90;;;;;;6244730;23;20429;-79
2022/10/27 02:11:54;;;;;;;0.50;0.50;;;8.50;99.90;;;;;;6247327;23;20746;-79
2022/10/27 02:14:21;;;;;;;0.45;0.45;;;8.40;99.90;;;;;;6241326;23;20487;-79
2022/10/27 02:16:52;;;;;;;0.50;0.50;;;8.40;99.90;;;;;;6247796;22;20555;-79
2022/10/27 02:19:25;;;;;;;0.57;0.57;;;8.40;99.90;;;;;;6245889;23;20761;-79
2022/10/27 02:21:56;;;;;;;0.70;0.50;;;8.30;99.90;;;;;;6246022;23;20381;-80
2022/10/27 02:24:23;;;;;;;0.50;0.50;;;8.20;99.90;;;;;;6243681;23;20770;-80
2022/10/27 02:27:00;;;;;;;0.50;0.50;;;8.30;99.90;;;;;;6237520;22;20397;-80
2022/10/27 02:29:55;;;;;;;0.67;0.47;;;8.30;99.90;;;;;;6247537;22;20440;-80
2022/10/27 02:32:23;;;;;;;0.38;0.38;;;8.30;99.90;;;;;;6244803;23;20398;-80
2022/10/27 02:34:51;;;;;;;0.50;0.40;;;8.20;99.90;;;;;;6236980;22;20385;-79
2022/10/27 02:37:24;;;;;;;0.50;0.50;;;8.10;99.90;;;;;;6236746;22;20393;-79
2022/10/27 02:39:51;;;;;;;0.60;0.60;;;8.00;99.90;;;;;;6234233;23;20756;-79
2022/10/27 02:42:17;;;;;;;0.40;0.40;;;8.00;99.90;;;;;;6237269;23;20785;-80
2022/10/27 02:44:44;;;;;;;0.50;0.50;;;7.90;99.90;;;;;;6245653;23;20729;-79
2022/10/27 02:47:11;;;;;;;0.33;0.33;;;7.80;99.90;;;;;;6245119;23;20436;-79
2022/10/27 02:49:38;;;;;;;0.50;0.50;;;7.70;99.90;;;;;;6238092;22;20393;-79
2022/10/27 02:52:04;;;;;;;0.82;0.63;;;7.70;99.90;;;;;;6244941;23;20436;-79
2022/10/27 02:54:31;;;;;;;0.70;0.70;;;7.60;99.90;;;;;;6235873;23;20394;-79
2022/10/27 02:56:58;;;;;;;0.57;0.57;;;7.50;99.90;;;;;;6236325;23;20479;-79
2022/10/27 02:59:25;;;;;;;0.43;0.43;;;7.50;99.90;;;;;;6236096;23;20870;-79
2022/10/27 03:01:52;;;;;;;0.70;0.70;;;7.40;99.90;;;;;;6239302;23;20870;-79
2022/10/27 03:04:18;;;;;;;0.80;0.80;;;7.40;99.90;;;;;;6246972;23;20394;-79
2022/10/27 03:06:45;;;;;;;0.43;0.43;;;7.50;99.90;;;;;;6237078;23;20390;-79
2022/10/27 03:09:12;;;;;;;0.60;0.50;;;7.60;99.90;;;;;;6238434;23;20390;-79
2022/10/27 03:11:38;;;;;;;0.75;0.75;;;7.60;99.90;;;;;;6235768;23;20445;-80
2022/10/27 03:14:09;;;;;;;0.60;0.60;;;7.70;99.90;;;;;;6236617;23;20420;-79
2022/10/27 03:16:36;;;;;;;0.50;0.50;;;7.80;99.90;;;;;;6247562;23;20471;-79
2022/10/27 03:19:02;;;;;;;0.40;0.40;;;7.90;99.90;;;;;;6237156;23;20403;-79
2022/10/27 03:21:29;;;;;;;0.80;0.80;;;7.90;99.90;;;;;;6236116;23;20817;-79
2022/10/27 03:23:56;;;;;;;0.68;0.68;;;7.80;99.90;;;;;;6248089;23;20754;-78
2022/10/27 03:26:23;;;;;;;0.70;0.70;;;7.80;99.90;;;;;;6238720;23;20393;-78
2022/10/27 03:28:49;;;;;;;0.50;0.50;;;7.80;99.90;;;;;;6237172;23;20389;-79
2022/10/27 03:31:16;;;;;;;0.68;0.68;;;7.80;99.90;;;;;;6248915;23;20390;-79
2022/10/27 03:33:43;;;;;;;0.60;0.60;;;7.70;99.90;;;;;;6245393;23;20389;-78
2022/10/27 03:36:13;;;;;;;0.50;0.50;;;7.70;99.90;;;;;;6237700;23;20439;-78
2022/10/27 03:38:39;;;;;;;0.40;0.40;;;7.70;99.90;;;;;;6247810;23;20765;-78
2022/10/27 03:41:06;;;;;;;0.47;0.47;;;7.60;99.90;;;;;;6234323;23;20444;-78
2022/10/27 03:43:32;;;;;;;0.50;0.50;;;7.50;99.90;;;;;;6246352;23;20765;-78
2022/10/27 03:45:59;;;;;;;0.80;0.80;;;7.30;99.90;;;;;;6248081;23;20393;-78
2022/10/27 03:48:29;;;;;;;0.57;0.57;;;7.20;99.90;;;;;;6245571;23;20441;-78
2022/10/27 03:50:56;;;;;;;0.40;0.40;;;7.10;99.90;;;;;;6249529;23;20390;-78
2022/10/27 03:53:23;;;;;;;0.88;0.65;;;7.00;99.90;;;;;;6246134;23;20396;-78
2022/10/27 03:55:50;;;;;;;0.60;0.60;;;7.00;99.90;;;;;;6249090;23;20382;-79
2022/10/27 03:58:17;;;;;;;0.65;0.65;;;6.80;99.90;;;;;;6235627;22;20440;-78
2022/10/27 04:00:45;;;;;;;0.60;0.60;;;6.80;99.90;;;;;;6237703;23;20385;-78
2022/10/27 04:03:15;;;;;;;0.70;0.70;;;6.90;99.90;;;;;;6232442;22;20398;-78
2022/10/27 04:05:41;;;;;;;0.67;0.67;;;6.90;99.90;;;;;;6246784;23;20386;-77
2022/10/27 04:08:08;;;;;;;0.50;0.50;;;6.90;99.90;;;;;;6247183;23;20394;-78
2022/10/27 04:10:35;;;;;;;0.40;0.40;;;7.00;99.90;;;;;;6238551;23;20382;-78
2022/10/27 04:13:01;;;;;;;0.65;0.65;;;7.20;99.90;;;;;;6237658;23;20390;-78
2022/10/27 04:15:28;;;;;;;0.80;0.73;;;7.30;99.90;;;;;;6236279;23;20397;-78
2022/10/27 04:17:57;;;;;;;1.67;1.10;;;7.50;99.90;;;;;;6247230;23;20386;-78
2022/10/27 04:20:24;;;;;;;0.85;0.85;;;7.60;99.90;;;;;;6246048;23;20401;-78
2022/10/27 04:22:54;;;;;;;0.52;0.52;;;7.80;99.90;;;;;;6238641;22;20738;-78
2022/10/27 04:25:21;;;;;;;0.98;0.93;;;8.00;99.90;;;;;;6235638;23;20400;-77
2022/10/27 04:27:48;;;;;;;2.25;0.68;;;8.10;99.90;;;;;;6248134;23;20435;-78
2022/10/27 04:30:15;;;;;;;0.70;0.55;;;8.10;99.90;;;;;;6236651;23;20389;-78
2022/10/27 04:32:42;;;;;;;0.75;0.70;;;8.10;99.90;;;;;;6235564;23;20444;-78
2022/10/27 04:35:09;;;;;;;0.80;0.80;;;8.10;99.90;;;;;;6245679;23;20389;-78
2022/10/27 04:37:38;;;;;;;2.65;0.98;;;8.10;99.90;;;;;;6237245;23;20385;-78
2022/10/27 04:40:05;;;;;;;1.10;0.85;;;8.00;99.90;;;;;;6239520;23;20393;-78
2022/10/27 04:42:32;;;;;;;0.60;0.60;;;7.90;99.90;;;;;;6254513;22;20394;-78
2022/10/27 04:44:59;;;;;;;0.85;0.85;;;7.90;99.90;;;;;;6234560;23;20390;-79
2022/10/27 04:47:26;;;;;;;0.60;0.60;;;7.80;99.90;;;;;;6236474;23;20390;-78
2022/10/27 04:49:52;;;;;;;0.60;0.60;;;7.70;99.90;;;;;;6245443;23;20726;-78
2022/10/27 04:52:19;;;;;;;1.02;0.93;;;7.60;99.90;;;;;;6235928;23;20390;-79
2022/10/27 04:54:46;;;;;;;0.70;0.70;;;7.60;99.90;;;;;;6246841;23;20420;-78
2022/10/27 04:57:12;;;;;;;0.70;0.70;;;7.50;99.90;;;;;;6237640;23;20451;-78
2022/10/27 04:59:41;;;;;;;0.60;0.60;;;7.60;99.90;;;;;;6248746;23;20772;-78
2022/10/27 05:02:07;;;;;;;0.60;0.60;;;7.60;99.90;;;;;;6246148;23;20389;-78
2022/10/27 05:04:34;;;;;;;0.90;0.90;;;7.60;99.90;;;;;;6233718;23;20870;-78
2022/10/27 05:07:01;;;;;;;0.85;0.75;;;7.60;99.90;;;;;;6235851;23;20874;-78
2022/10/27 05:09:28;;;;;;;0.90;0.60;;;7.60;99.90;;;;;;6245971;23;20774;-78
2022/10/27 05:11:55;;;;;;;0.70;0.60;;;7.60;99.90;;;;;;6237574;23;20397;-81
2022/10/27 05:14:21;;;;;;;0.70;0.70;;;7.50;99.90;;;;;;6235470;23;20398;-78
2022/10/27 05:16:48;;;;;;;0.97;0.97;;;7.50;99.90;;;;;;6232871;23;20449;-80
2022/10/27 05:19:15;;;;;;;0.70;0.70;;;7.50;99.90;;;;;;6237301;23;20398;-78
2022/10/27 05:21:41;;;;;;;0.68;0.60;;;7.60;99.90;;;;;;6232402;23;20398;-78
2022/10/27 05:24:08;;;;;;;0.80;0.80;;;7.60;99.90;;;;;;6232852;23;20437;-78
2022/10/27 05:26:35;;;;;;;0.80;0.80;;;7.50;99.90;;;;;;6233291;23;20420;-78
2022/10/27 05:29:03;;;;;;;0.80;0.80;;;7.50;99.90;;;;;;6244976;23;20396;-78
2022/10/27 05:31:30;;;;;;;0.82;0.82;;;7.60;99.90;;;;;;6245943;23;20386;-78
2022/10/27 05:33:57;;;;;;;0.60;0.53;;;7.60;99.90;;;;;;6236021;23;20472;-79
2022/10/27 05:36:25;;;;;;;0.83;0.83;;;7.50;99.90;;;;;;6243249;23;20642;-79
2022/10/27 05:38:52;;;;;;;1.92;0.70;;;7.50;99.90;;;;;;6233363;23;20390;-78
2022/10/27 05:41:18;;;;;;;1.02;0.88;;;7.50;99.90;;;;;;6231230;23;20460;-77
2022/10/27 05:43:45;;;;;;;0.60;0.60;;;7.50;99.90;;;;;;6234106;23;20393;-78
2022/10/27 05:46:14;;;;;;;0.50;0.50;;;7.40;99.90;;;;;;6235102;23;20393;-79
2022/10/27 05:48:41;;;;;;;0.77;0.77;;;7.40;99.90;;;;;;6236117;22;20916;-79
2022/10/27 05:51:09;;;;;;;0.88;0.88;;;7.30;99.90;;;;;;6234379;23;20390;-79
2022/10/27 05:53:36;;;;;;;1.10;0.68;;;7.30;99.90;;;;;;6233547;23;20401;-79
2022/10/27 05:56:04;;;;;;;0.75;0.75;;;7.30;99.90;;;;;;6234181;23;20445;-79
2022/10/27 05:58:30;;;;;;;0.93;0.93;;;7.30;99.90;;;;;;6236596;23;20405;-78
2022/10/27 06:00:58;;;;;;;0.90;0.90;;;7.40;99.90;;;;;;6245255;23;20393;-78
2022/10/27 06:03:27;;;;;;;0.73;0.73;;;7.40;99.90;;;;;;6233699;23;20726;-78
2022/10/27 06:05:54;;;;;;;0.75;0.75;;;7.50;99.90;;;;;;6231919;23;20390;-78
2022/10/27 06:08:22;;;;;;;0.68;0.68;;;7.70;99.90;;;;;;6234122;22;20393;-79
2022/10/27 06:10:49;;;;;;;1.50;1.05;;;7.80;99.90;;;;;;6234547;22;20393;-78
2022/10/27 06:13:17;;;;;;;0.85;0.85;;;8.00;99.90;;;;;;6246057;23;20388;-78
2022/10/27 06:15:44;;;;;;;0.60;0.60;;;8.00;99.90;;;;;;6235495;22;20489;-78
2022/10/27 06:18:13;;;;;;;0.57;0.57;;;8.20;99.90;;;;;;6233455;23;20866;-78
2022/10/27 06:22:51;;;;;;;0.90;0.90;;;8.30;99.90;;;;;;5097844;27;20899;-68
2022/10/27 06:25:18;;;;;;;1.58;0.88;;;8.20;99.90;;;;;;5066149;28;21136;-68
2022/10/27 06:27:45;;;;;;;1.88;1.23;;;8.20;99.90;;;;;;5072239;28;20866;-68
2022/10/27 06:30:12;;;;;;;1.00;1.00;;;8.10;99.90;;;;;;5105595;27;20456;-68
2022/10/27 06:32:40;;;;;;;0.83;0.80;;;8.10;99.90;;;;;;5079781;28;20455;-68
2022/10/27 06:35:08;;;;;;;2.35;1.45;;;8.10;99.90;;;;;;5069601;28;20936;-68
2022/10/27 06:37:43;;;;;;;1.52;0.82;;;8.20;99.90;;;;;;5076160;28;20896;-68
2022/10/27 06:40:13;;;;;;;0.50;0.50;;;8.30;99.90;;;;;;5083243;28;20482;-68
2022/10/27 06:42:39;;;;;;;1.00;0.88;;;8.40;99.90;;;;;;5080128;28;20432;-68
2022/10/27 06:45:26;;;;;;;0.63;0.63;;;8.50;99.90;;;;;;5068912;28;20438;-68
2022/10/27 06:48:00;;;;;;;1.35;0.80;;;8.60;99.90;;;;;;5081514;28;20457;-68
2022/10/27 06:50:28;;;;;;;0.70;0.70;;;8.70;99.90;;;;;;5070449;28;20423;-68
2022/10/27 06:52:55;;;;;;;0.85;0.85;;;8.70;99.90;;;;;;5078581;28;20448;-68
2022/10/27 06:55:21;;;;;;;0.93;0.93;;;8.90;99.90;;;;;;5086827;28;20435;-68
2022/10/27 06:57:48;;;;;;;0.65;0.55;;;9.20;99.90;;;;;;5079070;28;20436;-68
2022/10/27 07:00:15;;;;;;;1.48;1.10;;;9.50;99.90;;;;;;5073458;28;20519;-68
2022/10/27 07:02:42;;;;;;;1.20;0.90;;;9.70;99.90;;;;;;5074308;28;20442;-68
2022/10/27 07:05:09;;;;;;;0.60;0.60;;;9.90;99.90;;;;;;5095007;28;20418;-68
2022/10/27 07:07:36;;;;;;;1.23;1.13;;;9.90;99.90;;;;;;5071029;28;20427;-67
2022/10/27 07:10:04;;;;;;;0.98;0.82;;;9.90;99.90;;;;;;5073712;28;20435;-68
2022/10/27 07:12:31;;;;;;;1.20;1.17;;;9.90;99.90;;;;;;5066679;28;20444;-68
2022/10/27 07:14:58;;;;;;;0.88;0.88;;;9.90;99.90;;;;;;5072746;28;20521;-67
2022/10/27 07:17:24;;;;;;;0.80;0.80;;;9.80;99.90;;;;;;5075498;28;20832;-67
2022/10/27 07:19:51;;;;;;;1.23;1.23;;;9.80;99.90;;;;;;5068092;28;20974;-67
2022/10/27 07:22:21;;;;;;;1.02;1.02;;;9.90;99.90;;;;;;5081645;28;20419;-67
2022/10/27 07:24:48;;;;;;;1.03;1.03;;;9.90;99.90;;;;;;5073714;28;20506;-70
2022/10/27 07:27:15;;;;;;;1.00;0.90;;;9.90;99.90;;;;;;5070651;28;20434;-68
2022/10/27 07:29:41;;;;;;;1.00;1.00;;;10.10;99.90;;;;;;5076051;28;21140;-69
2022/10/27 07:32:08;;;;;;;1.50;1.40;;;10.10;99.90;;;;;;5077744;28;20460;-67
2022/10/27 07:34:35;;;;;;;0.80;0.80;;;10.20;99.90;;;;;;5107753;27;21199;-68
2022/10/27 07:37:01;;;;;;;1.00;0.90;;;10.30;99.90;;;;;;5067018;28;20443;-68
2022/10/27 07:39:28;;;;;;;0.98;0.95;;;10.30;99.90;;;;;;5071315;28;20433;-68
2022/10/27 07:41:55;;;;;;;1.35;1.20;;;10.50;99.90;;;;;;5103712;27;20435;-68
2022/10/27 07:44:21;;;;;;;1.20;1.10;;;10.70;99.90;;;;;;5065694;28;20454;-68
2022/10/27 07:46:48;;;;;;;1.15;1.15;;;10.80;99.90;;;;;;5070741;28;20426;-67
2022/10/27 07:49:15;;;;;;;1.10;1.10;;;10.80;99.90;;;;;;5079281;28;20836;-69
2022/10/27 07:51:42;;;;;;;1.15;1.15;;;10.80;99.90;;;;;;5075676;28;20427;-68
2022/10/27 07:54:09;;;;;;;1.90;1.00;;;11.00;99.90;;;;;;5057189;28;20464;-68
2022/10/27 07:56:36;;;;;;;1.38;1.27;;;11.10;99.90;;;;;;5065727;28;20440;-67
2022/10/27 07:59:04;;;;;;;2.08;1.75;;;11.30;99.90;;;;;;5067015;28;20435;-67
2022/10/27 08:01:31;;;;;;;1.90;1.60;;;11.40;99.90;;;;;;5064933;28;20437;-67
2022/10/27 08:03:58;;;;;;;2.17;1.60;;;11.60;99.90;;;;;;5067283;28;20467;-67
2022/10/27 08:06:26;;;;;;;1.98;1.85;;;11.60;99.90;;;;;;5067710;28;20419;-67
2022/10/27 08:08:53;;;;;;;1.52;1.52;;;11.60;99.90;;;;;;5086768;28;20488;-67
2022/10/27 08:11:21;;;;;;;1.90;1.80;;;11.80;99.90;;;;;;5065404;28;20429;-68
2022/10/27 08:13:49;;;;;;;3.72;1.83;;;11.90;99.90;;;;;;5076933;28;20438;-67
2022/10/27 08:16:15;;;;;;;2.67;2.08;;;12.10;99.90;;;;;;5068160;28;20445;-68
2022/10/27 08:18:42;;;;;;;2.17;1.58;;;12.10;99.90;;;;;;5065506;28;20423;-67
2022/10/27 08:21:09;;;;;;;2.63;1.85;;;12.00;99.90;;;;;;5060306;28;20499;-68
2022/10/27 08:23:37;;;;;;;2.55;2.35;;;12.30;99.90;;;;;;5070219;28;20488;-68
2022/10/27 08:26:04;;;;;;;2.00;1.90;;;12.40;99.90;;;;;;5065292;28;20956;-68
2022/10/27 08:28:30;;;;;;;1.52;1.42;;;12.60;99.90;;;;;;5074951;28;20489;-68
2022/10/27 08:30:58;;;;;;;1.50;1.40;;;12.70;99.90;;;;;;5057755;28;20804;-68
2022/10/27 08:33:25;;;;;;;1.17;1.17;;;12.80;99.90;;;;;;5075238;28;20419;-68
2022/10/27 08:35:51;;;;;;;1.48;1.13;;;13.10;99.90;;;;;;5063276;28;21125;-68
2022/10/27 08:38:18;;;;;;;1.27;1.23;;;13.10;99.90;;;;;;5066081;28;20833;-68
2022/10/27 08:40:48;;;;;;;1.50;1.23;;;13.30;99.90;;;;;;5060599;28;20438;-68
2022/10/27 08:43:24;;;;;;;1.80;1.70;;;13.50;99.90;;;;;;5076059;28;20504;-68
2022/10/27 08:46:04;;;;;;;1.52;1.42;;;13.60;99.90;;;;;;5065873;28;20813;-67
2022/10/27 08:48:34;;;;;;;1.38;1.27;;;13.80;99.90;;;;;;5061554;28;20428;-67
2022/10/27 08:51:01;;;;;;;1.80;1.05;;;13.70;99.90;;;;;;5067145;28;20768;-68
2022/10/27 08:53:34;;;;;;;1.00;1.00;;;14.10;99.90;;;;;;5064067;28;20778;-68
2022/10/27 08:56:08;;;;;;;1.08;1.08;;;14.50;99.90;;;;;;5062208;28;20431;-66
2022/10/27 08:58:46;;;;;;;1.27;1.17;;;14.70;99.90;;;;;;5059512;28;20430;-67
2022/10/27 09:01:24;;;;;;;1.20;1.20;;;15.00;99.90;;;;;;5058981;28;20496;-68
2022/10/27 09:04:14;;;;;;;1.52;0.90;;;15.20;98.00;;;;;;5068532;28;20459;-68
2022/10/27 09:06:48;;;;;;;0.70;0.70;;;15.60;1.00;;;;;;5092039;28;20457;-67
2022/10/27 09:09:18;;;;;;;0.90;0.90;;;15.30;1.00;;;;;;5065677;28;20427;-67
2022/10/27 09:12:05;;;;;;;0.90;0.90;;;15.40;99.90;;;;;;5057283;28;20505;-67
2022/10/27 09:14:47;;;;;;;1.50;1.13;;;15.70;99.90;;;;;;5062185;28;20469;-67
2022/10/27 09:17:31;;;;;;;2.10;0.80;;;15.90;1.00;;;;;;5060326;28;20518;-67
2022/10/27 09:20:04;;;;;;;0.98;0.70;;;16.10;99.90;;;;;;5074074;28;20433;-67
2022/10/27 09:22:36;;;;;;;1.08;1.00;;;16.70;99.90;;;;;;5082279;28;20491;-67
2022/10/27 09:25:19;;;;;;;0.80;0.70;;;16.80;1.00;;;;;;5055696;28;20424;-67
2022/10/27 09:27:58;;;;;;;1.00;1.00;;;17.10;1.00;;;;;;5055624;28;20427;-67
2022/10/27 09:30:34;;;;;;;1.00;1.00;;;17.10;1.00;;;;;;5056545;28;20446;-67
2022/10/27 09:33:07;;;;;;;2.42;0.80;;;17.30;1.00;;;;;;5056504;28;20450;-68
2022/10/27 09:35:34;;;;;;;0.80;0.80;;;17.20;1.00;;;;;;5055605;28;20742;-67
2022/10/27 09:38:01;;;;;;;0.98;0.88;;;17.60;1.00;;;;;;5051426;28;20448;-67
2022/10/27 09:40:31;;;;;;;0.90;0.90;;;18.00;1.00;;;;;;5058710;28;20439;-67
2022/10/27 09:42:59;;;;;;;0.95;0.95;;;18.40;99.90;;;;;;5061585;28;20434;-67
2022/10/27 09:45:27;;;;;;;1.10;1.10;;;18.70;99.90;;;;;;5058692;28;20431;-67
2022/10/27 09:48:03;;;;;;;1.17;1.00;;;19.00;99.90;;;;;;5063567;28;20438;-67
2022/10/27 09:50:42;;;;;;;0.93;0.90;;;19.30;99.90;;;;;;5051989;28;20582;-67
2022/10/27 09:53:39;;;;;;;0.88;0.88;;;19.50;99.90;;;;;;5063851;28;20439;-67
2022/10/27 09:56:11;;;;;;;1.07;0.80;;;19.80;99.90;;;;;;5060673;28;20447;-67
2022/10/27 09:58:46;;;;;;;1.10;0.90;;;20.10;99.90;;;;;;5064026;28;20532;-67
2022/10/27 10:01:16;;;;;;;1.38;1.27;;;20.30;99.90;;;;;;5047156;28;20437;-67
2022/10/27 10:04:04;;;;;;;1.05;1.05;;;20.60;99.90;;;;;;5061095;28;20435;-67
2022/10/27 10:06:39;;;;;;;2.60;1.10;;;20.70;99.90;;;;;;5065701;28;20435;-67
2022/10/27 10:09:35;;;;;;;2.20;1.10;;;20.60;99.90;;;;;;5067200;28;20428;-66
2022/10/27 10:12:25;;;;;;;0.90;0.90;;;20.60;99.90;;;;;;5064765;28;20527;-67
2022/10/27 10:15:10;;;;;;;1.20;0.90;;;20.80;99.90;;;;;;5056274;28;20440;-67
2022/10/27 10:18:00;;;;;;;1.20;1.00;;;21.10;99.90;;;;;;5052055;28;20433;-67
2022/10/27 10:20:41;;;;;;;2.05;1.08;;;20.90;99.90;;;;;;5062112;28;20910;-67
2022/10/27 10:23:28;;;;;;;3.60;1.00;;;20.90;99.90;;;;;;5060578;28;20416;-67
2022/10/27 10:25:58;;;;;;;0.90;0.90;;;21.20;99.90;;;;;;5081995;28;20423;-67
2022/10/27 10:28:43;;;;;;;0.98;0.98;;;21.60;99.90;;;;;;5052437;28;20446;-67
2022/10/27 10:31:14;;;;;;;0.80;0.80;;;21.30;99.90;;;;;;5071244;28;20429;-67
2022/10/27 10:33:45;;;;;;;0.80;0.80;;;21.20;99.90;;;;;;5047895;28;20436;-67
2022/10/27 10:36:24;;;;;;;1.07;1.07;;;21.20;99.90;;;;;;5050309;28;20463;-67
2022/10/27 10:38:56;;;;;;;0.80;0.80;;;21.60;99.90;;;;;;5060894;28;20435;-67
2022/10/27 10:41:25;;;;;;;0.77;0.77;;;22.20;99.90;;;;;;5054887;28;20429;-67
2022/10/27 10:44:14;;;;;;;0.95;0.90;;;22.50;99.90;;;;;;5063748;28;20431;-67
2022/10/27 10:46:54;;;;;;;0.93;0.90;;;22.80;99.90;;;;;;5065137;28;20435;-67
2022/10/27 10:49:27;;;;;;;0.85;0.85;;;22.50;99.90;;;;;;5066496;28;20434;-67
2022/10/27 10:51:59;;;;;;;1.10;1.00;;;22.60;99.90;;;;;;5066892;28;20926;-67
2022/10/27 10:54:41;;;;;;;0.90;0.90;;;22.60;99.90;;;;;;5049007;28;20432;-67
2022/10/27 10:57:25;;;;;;;1.45;1.10;;;22.70;99.90;;;;;;5056298;28;20421;-67
2022/10/27 10:59:58;;;;;;;0.90;0.90;;;22.60;99.90;;;;;;5061722;28;20423;-67
2022/10/27 11:02:31;;;;;;;1.02;1.02;;;22.60;99.90;;;;;;5052336;28;20428;-67
2022/10/27 11:05:26;;;;;;;0.90;0.90;;;22.80;99.90;;;;;;5071594;28;20422;-68
2022/10/27 11:07:54;;;;;;;1.20;1.10;;;23.10;99.90;;;;;;5053473;28;21109;-67
2022/10/27 11:10:24;;;;;;;1.13;1.13;;;23.30;99.90;;;;;;5061356;28;20472;-67
2022/10/27 11:12:53;;;;;;;1.85;1.30;;;23.00;99.90;;;;;;5083842;28;21294;-67
2022/10/27 11:15:42;;;;;;;1.60;1.50;;;22.40;99.90;;;;;;5066809;28;20433;-67
2022/10/27 11:18:25;;;;;;;1.30;1.30;;;22.60;99.90;;;;;;5058854;28;20477;-67
2022/10/27 11:21:04;;;;;;;2.60;2.20;;;22.30;99.90;;;;;;5075961;28;20435;-67
2022/10/27 11:23:53;;;;;;;2.63;2.25;;;21.30;99.90;;;;;;5069926;28;20431;-67
2022/10/27 11:26:51;;;;;;;2.60;2.40;;;20.90;99.90;;;;;;5082133;28;20464;-67
2022/10/27 11:29:57;;;;;;;2.30;2.10;;;20.30;99.90;;;;;;5062513;28;21170;-67
2022/10/27 11:32:46;;;;;;;2.90;2.60;;;20.20;99.90;;;;;;5047425;28;20537;-67
2022/10/27 11:35:27;;;;;;;2.35;2.15;;;21.00;99.90;;;;;;5047723;28;20441;-67
2022/10/27 11:38:15;;;;;;;3.45;2.63;;;21.80;99.90;;;;;;5048124;28;20425;-67
2022/10/27 11:40:41;;;;;;;2.30;2.20;;;22.50;99.90;;;;;;5047512;28;20429;-67
2022/10/27 11:43:28;;;;;;;4.38;2.20;;;22.70;99.90;;;;;;5045628;28;20975;-67
2022/10/27 11:46:24;;;;;;;3.55;2.17;;;22.60;99.90;;;;;;5047866;28;20444;-67
2022/10/27 11:48:56;;;;;;;2.20;2.00;;;22.30;99.90;;;;;;5029371;28;20425;-67
2022/10/27 11:51:39;;;;;;;2.33;2.13;;;22.30;99.90;;;;;;5045660;28;20452;-67
2022/10/27 11:54:06;;;;;;;2.75;1.65;;;22.30;99.90;;;;;;5047067;28;20483;-67
2022/10/27 11:56:35;;;;;;;2.40;2.20;;;21.90;99.90;;;;;;5047562;28;20435;-67
2022/10/27 11:59:24;;;;;;;1.70;1.60;;;21.80;99.90;;;;;;5046384;28;20429;-67
2022/10/27 12:02:09;;;;;;;2.25;2.05;;;22.00;99.90;;;;;;5046134;28;20434;-67
2022/10/27 12:05:03;;;;;;;2.28;2.08;;;22.10;99.90;;;;;;5044341;28;21117;-67
2022/10/27 12:07:48;;;;;;;2.10;2.00;;;21.90;99.90;;;;;;5041004;28;20428;-67
2022/10/27 12:10:28;;;;;;;2.40;2.17;;;21.80;99.90;;;;;;5075778;28;20422;-67
2022/10/27 12:13:32;;;;;;;1.63;1.52;;;22.00;99.90;;;;;;5062992;28;20441;-68
2022/10/27 12:16:27;;;;;;;2.23;2.13;;;22.10;99.90;;;;;;5059216;28;20467;-67
2022/10/27 12:19:02;;;;;;;3.25;2.70;;;21.90;99.90;;;;;;5075073;28;20440;-67
2022/10/27 12:22:07;;;;;;;2.67;2.20;;;21.80;99.90;;;;;;5049319;28;20487;-67
2022/10/27 12:25:06;;;;;;;3.15;2.85;;;22.20;99.90;;;;;;5049870;28;20443;-67
2022/10/27 12:27:36;;;;;;;2.57;2.33;;;21.80;99.90;;;;;;5063119;28;20459;-67
2022/10/27 12:30:11;;;;;;;2.75;2.55;;;22.00;99.90;;;;;;5056574;28;20433;-67
2022/10/27 12:32:59;;;;;;;3.15;2.42;;;21.70;99.90;;;;;;5050637;28;20429;-67
2022/10/27 12:35:48;;;;;;;3.30;2.85;;;21.90;99.90;;;;;;5058359;28;20474;-67
2022/10/27 12:38:19;;;;;;;3.13;2.50;;;21.60;99.90;;;;;;5055600;28;20440;-68
2022/10/27 12:41:25;;;;;;;2.83;2.63;;;20.90;99.90;;;;;;5053956;28;20425;-67
2022/10/27 12:44:11;;;;;;;3.72;2.70;;;21.10;99.90;;;;;;5057134;28;20939;-67
2022/10/27 12:46:54;;;;;;;2.45;2.25;;;21.00;99.90;;;;;;5051953;28;20431;-67
2022/10/27 12:49:44;;;;;;;3.10;2.47;;;21.20;99.90;;;;;;5058729;28;20435;-67
2022/10/27 12:52:25;;;;;;;4.20;2.63;;;20.70;99.90;;;;;;5060638;28;20491;-67
2022/10/27 12:55:04;;;;;;;3.50;2.70;;;20.60;99.90;;;;;;5074183;28;20426;-66
2022/10/27 12:57:50;;;;;;;2.45;2.25;;;20.50;99.90;;;;;;5063336;28;20432;-67
2022/10/27 13:00:22;;;;;;;2.95;2.60;;;20.50;99.90;;;;;;5057688;28;20442;-67
2022/10/27 13:02:53;;;;;;;2.65;2.38;;;20.40;99.90;;;;;;5073530;28;20433;-67
2022/10/27 13:05:42;;;;;;;3.42;2.33;;;20.80;99.90;;;;;;5062857;28;20428;-67
2022/10/27 13:08:27;;;;;;;2.72;2.53;;;21.40;99.90;;;;;;5067650;28;20436;-67
2022/10/27 13:11:09;;;;;;;2.58;2.35;;;21.90;99.90;;;;;;5057239;28;20923;-67
2022/10/27 13:14:06;;;;;;;3.00;2.67;;;22.10;99.90;;;;;;5060242;28;20483;-67
2022/10/27 13:16:45;;;;;;;3.22;2.33;;;22.10;99.90;;;;;;5055735;28;20518;-67
2022/10/27 13:19:40;;;;;;;2.58;2.38;;;21.90;99.90;;;;;;5066286;28;20439;-67
2022/10/27 13:22:16;;;;;;;2.72;2.53;;;21.60;99.90;;;;;;5075919;28;20431;-68
2022/10/27 13:25:03;;;;;;;2.95;2.45;;;21.50;99.90;;;;;;5078365;28;20431;-67